sensor_id;sensor_type;location;lat;lon;timestamp;P1;durP1;ratioP1;P2;durP2;ratioP2
59074;SDS011;44860;53.020;6.738;2023-06-01T00:00:32;17.17;;;5.80;;
59074;SDS011;44860;53.020;6.738;2023-06-01T00:02:58;14.80;;;6.50;;
59074;SDS011;44860;53.020;6.738;2023-06-01T00:05:24;14.07;;;5.88;;
59074;SDS011;44860;53.020;6.738;2023-06-01T00:07:49;15.18;;;6.22;;
59074;SDS011;44860;53.020;6.738;2023-06-01T00:10:15;14.30;;;5.82;;
59074;SDS011;44860;53.020;6.738;2023-06-01T00:12:41;18.02;;;6.85;;
59074;SDS011;44860;53.020;6.738;2023-06-01T00:15:08;21.70;;;7.55;;
59074;SDS011;44860;53.020;6.738;2023-06-01T00:17:34;13.88;;;6.25;;
59074;SDS011;44860;53.020;6.738;2023-06-01T00:20:00;18.10;;;6.78;;
59074;SDS011;44860;53.020;6.738;2023-06-01T00:22:33;15.38;;;6.70;;
59074;SDS011;44860;53.020;6.738;2023-06-01T00:25:03;12.90;;;6.20;;
59074;SDS011;44860;53.020;6.738;2023-06-01T00:27:31;13.13;;;6.47;;
59074;SDS011;44860;53.020;6.738;2023-06-01T00:29:56;15.50;;;6.28;;
59074;SDS011;44860;53.020;6.738;2023-06-01T00:32:22;14.73;;;6.53;;
59074;SDS011;44860;53.020;6.738;2023-06-01T00:34:48;14.00;;;6.25;;
59074;SDS011;44860;53.020;6.738;2023-06-01T00:37:13;16.70;;;6.97;;
59074;SDS011;44860;53.020;6.738;2023-06-01T00:39:39;16.60;;;6.85;;
59074;SDS011;44860;53.020;6.738;2023-06-01T00:42:05;12.27;;;6.30;;
59074;SDS011;44860;53.020;6.738;2023-06-01T00:44:31;16.08;;;6.68;;
59074;SDS011;44860;53.020;6.738;2023-06-01T00:46:56;15.18;;;7.00;;
59074;SDS011;44860;53.020;6.738;2023-06-01T00:49:24;14.30;;;6.38;;
59074;SDS011;44860;53.020;6.738;2023-06-01T00:51:50;12.88;;;6.32;;
59074;SDS011;44860;53.020;6.738;2023-06-01T00:54:16;13.18;;;6.28;;
59074;SDS011;44860;53.020;6.738;2023-06-01T00:56:42;12.60;;;6.30;;
59074;SDS011;44860;53.020;6.738;2023-06-01T00:59:08;13.85;;;6.07;;
59074;SDS011;44860;53.020;6.738;2023-06-01T01:01:34;17.70;;;5.95;;
59074;SDS011;44860;53.020;6.738;2023-06-01T01:04:01;14.80;;;6.45;;
59074;SDS011;44860;53.020;6.738;2023-06-01T01:09:19;15.35;;;6.65;;
59074;SDS011;44860;53.020;6.738;2023-06-01T01:11:56;15.27;;;5.90;;
59074;SDS011;44860;53.020;6.738;2023-06-01T01:14:28;13.18;;;6.20;;
59074;SDS011;44860;53.020;6.738;2023-06-01T01:17:18;15.57;;;6.45;;
59074;SDS011;44860;53.020;6.738;2023-06-01T01:20:08;17.48;;;6.20;;
59074;SDS011;44860;53.020;6.738;2023-06-01T01:27:55;14.48;;;6.70;;
59074;SDS011;44860;53.020;6.738;2023-06-01T01:30:28;15.30;;;6.75;;
59074;SDS011;44860;53.020;6.738;2023-06-01T01:32:55;13.75;;;6.25;;
59074;SDS011;44860;53.020;6.738;2023-06-01T01:35:23;15.95;;;6.57;;
59074;SDS011;44860;53.020;6.738;2023-06-01T01:37:50;16.83;;;6.38;;
59074;SDS011;44860;53.020;6.738;2023-06-01T01:40:17;17.02;;;6.32;;
59074;SDS011;44860;53.020;6.738;2023-06-01T01:42:42;14.52;;;6.15;;
59074;SDS011;44860;53.020;6.738;2023-06-01T01:45:08;13.80;;;5.97;;
59074;SDS011;44860;53.020;6.738;2023-06-01T01:47:36;15.70;;;6.68;;
59074;SDS011;44860;53.020;6.738;2023-06-01T01:50:06;16.42;;;7.15;;
59074;SDS011;44860;53.020;6.738;2023-06-01T01:52:39;16.25;;;6.85;;
59074;SDS011;44860;53.020;6.738;2023-06-01T01:55:09;16.75;;;6.95;;
59074;SDS011;44860;53.020;6.738;2023-06-01T01:57:36;13.68;;;6.45;;
59074;SDS011;44860;53.020;6.738;2023-06-01T02:00:03;13.57;;;6.57;;
59074;SDS011;44860;53.020;6.738;2023-06-01T02:02:31;15.10;;;6.60;;
59074;SDS011;44860;53.020;6.738;2023-06-01T02:04:57;15.60;;;6.95;;
59074;SDS011;44860;53.020;6.738;2023-06-01T02:07:22;16.38;;;6.95;;
59074;SDS011;44860;53.020;6.738;2023-06-01T02:09:48;17.13;;;7.10;;
59074;SDS011;44860;53.020;6.738;2023-06-01T02:12:14;17.10;;;6.97;;
59074;SDS011;44860;53.020;6.738;2023-06-01T02:14:39;14.45;;;6.53;;
59074;SDS011;44860;53.020;6.738;2023-06-01T02:17:05;15.55;;;7.13;;
59074;SDS011;44860;53.020;6.738;2023-06-01T02:19:32;13.10;;;6.45;;
59074;SDS011;44860;53.020;6.738;2023-06-01T02:21:58;14.40;;;7.07;;
59074;SDS011;44860;53.020;6.738;2023-06-01T02:24:24;13.20;;;6.43;;
59074;SDS011;44860;53.020;6.738;2023-06-01T02:26:49;17.42;;;6.68;;
59074;SDS011;44860;53.020;6.738;2023-06-01T02:29:19;12.95;;;6.68;;
59074;SDS011;44860;53.020;6.738;2023-06-01T02:31:49;19.45;;;7.13;;
59074;SDS011;44860;53.020;6.738;2023-06-01T02:34:16;14.57;;;6.60;;
59074;SDS011;44860;53.020;6.738;2023-06-01T02:36:42;13.65;;;6.35;;
59074;SDS011;44860;53.020;6.738;2023-06-01T02:39:08;15.35;;;6.75;;
59074;SDS011;44860;53.020;6.738;2023-06-01T02:41:34;13.95;;;6.30;;
59074;SDS011;44860;53.020;6.738;2023-06-01T02:43:59;15.48;;;6.35;;
59074;SDS011;44860;53.020;6.738;2023-06-01T02:46:25;15.77;;;7.00;;
59074;SDS011;44860;53.020;6.738;2023-06-01T02:48:51;11.63;;;6.15;;
59074;SDS011;44860;53.020;6.738;2023-06-01T02:51:18;13.77;;;6.25;;
59074;SDS011;44860;53.020;6.738;2023-06-01T02:53:46;12.07;;;6.78;;
59074;SDS011;44860;53.020;6.738;2023-06-01T02:56:12;15.40;;;6.43;;
59074;SDS011;44860;53.020;6.738;2023-06-01T02:58:39;15.50;;;6.65;;
59074;SDS011;44860;53.020;6.738;2023-06-01T03:01:04;15.30;;;6.55;;
59074;SDS011;44860;53.020;6.738;2023-06-01T03:03:30;12.02;;;6.60;;
59074;SDS011;44860;53.020;6.738;2023-06-01T03:05:56;13.98;;;7.05;;
59074;SDS011;44860;53.020;6.738;2023-06-01T03:08:22;15.32;;;7.00;;
59074;SDS011;44860;53.020;6.738;2023-06-01T03:10:49;15.15;;;6.93;;
59074;SDS011;44860;53.020;6.738;2023-06-01T03:13:15;14.23;;;6.32;;
59074;SDS011;44860;53.020;6.738;2023-06-01T03:15:41;10.93;;;6.00;;
59074;SDS011;44860;53.020;6.738;2023-06-01T03:18:07;13.18;;;6.10;;
59074;SDS011;44860;53.020;6.738;2023-06-01T03:20:33;12.98;;;5.35;;
59074;SDS011;44860;53.020;6.738;2023-06-01T03:22:59;12.13;;;5.03;;
59074;SDS011;44860;53.020;6.738;2023-06-01T03:25:25;9.25;;;5.22;;
59074;SDS011;44860;53.020;6.738;2023-06-01T03:27:51;11.85;;;5.10;;
59074;SDS011;44860;53.020;6.738;2023-06-01T03:30:17;10.98;;;5.50;;
59074;SDS011;44860;53.020;6.738;2023-06-01T03:32:43;11.48;;;5.22;;
59074;SDS011;44860;53.020;6.738;2023-06-01T03:35:10;13.50;;;5.28;;
59074;SDS011;44860;53.020;6.738;2023-06-01T03:37:37;10.57;;;5.00;;
59074;SDS011;44860;53.020;6.738;2023-06-01T03:40:05;11.48;;;5.20;;
59074;SDS011;44860;53.020;6.738;2023-06-01T03:42:40;10.52;;;4.70;;
59074;SDS011;44860;53.020;6.738;2023-06-01T03:45:07;11.85;;;5.05;;
59074;SDS011;44860;53.020;6.738;2023-06-01T03:47:34;10.38;;;4.65;;
59074;SDS011;44860;53.020;6.738;2023-06-01T03:50:00;12.07;;;4.85;;
59074;SDS011;44860;53.020;6.738;2023-06-01T03:52:27;9.55;;;4.80;;
59074;SDS011;44860;53.020;6.738;2023-06-01T03:54:54;10.90;;;4.93;;
59074;SDS011;44860;53.020;6.738;2023-06-01T03:57:21;13.27;;;5.00;;
59074;SDS011;44860;53.020;6.738;2023-06-01T03:59:47;10.40;;;5.07;;
59074;SDS011;44860;53.020;6.738;2023-06-01T04:02:13;11.98;;;4.88;;
59074;SDS011;44860;53.020;6.738;2023-06-01T04:04:38;10.57;;;4.88;;
59074;SDS011;44860;53.020;6.738;2023-06-01T04:07:10;13.60;;;5.43;;
59074;SDS011;44860;53.020;6.738;2023-06-01T04:09:42;11.40;;;5.47;;
59074;SDS011;44860;53.020;6.738;2023-06-01T04:12:10;9.77;;;5.43;;
59074;SDS011;44860;53.020;6.738;2023-06-01T04:14:36;12.82;;;5.32;;
59074;SDS011;44860;53.020;6.738;2023-06-01T04:17:02;13.98;;;5.60;;
59074;SDS011;44860;53.020;6.738;2023-06-01T04:19:28;12.63;;;5.72;;
59074;SDS011;44860;53.020;6.738;2023-06-01T04:21:53;10.98;;;5.95;;
59074;SDS011;44860;53.020;6.738;2023-06-01T04:24:20;14.07;;;5.85;;
59074;SDS011;44860;53.020;6.738;2023-06-01T04:26:46;18.38;;;6.07;;
59074;SDS011;44860;53.020;6.738;2023-06-01T04:29:12;12.38;;;6.45;;
59074;SDS011;44860;53.020;6.738;2023-06-01T04:31:38;15.05;;;6.18;;
59074;SDS011;44860;53.020;6.738;2023-06-01T04:34:04;12.15;;;5.95;;
59074;SDS011;44860;53.020;6.738;2023-06-01T04:36:32;15.43;;;6.78;;
59074;SDS011;44860;53.020;6.738;2023-06-01T04:39:02;14.20;;;6.35;;
59074;SDS011;44860;53.020;6.738;2023-06-01T04:41:28;17.50;;;6.45;;
59074;SDS011;44860;53.020;6.738;2023-06-01T04:43:56;11.65;;;5.47;;
59074;SDS011;44860;53.020;6.738;2023-06-01T04:46:23;14.82;;;5.90;;
59074;SDS011;44860;53.020;6.738;2023-06-01T04:48:54;17.25;;;6.95;;
59074;SDS011;44860;53.020;6.738;2023-06-01T04:51:23;19.52;;;6.40;;
59074;SDS011;44860;53.020;6.738;2023-06-01T04:53:50;10.40;;;5.65;;
59074;SDS011;44860;53.020;6.738;2023-06-01T04:56:26;12.20;;;5.25;;
59074;SDS011;44860;53.020;6.738;2023-06-01T04:58:52;11.65;;;5.50;;
59074;SDS011;44860;53.020;6.738;2023-06-01T05:01:23;11.82;;;5.00;;
59074;SDS011;44860;53.020;6.738;2023-06-01T05:03:54;11.40;;;4.97;;
59074;SDS011;44860;53.020;6.738;2023-06-01T05:06:20;12.30;;;5.50;;
59074;SDS011;44860;53.020;6.738;2023-06-01T05:08:46;12.27;;;5.55;;
59074;SDS011;44860;53.020;6.738;2023-06-01T05:11:12;11.32;;;5.60;;
59074;SDS011;44860;53.020;6.738;2023-06-01T05:13:38;19.45;;;8.75;;
59074;SDS011;44860;53.020;6.738;2023-06-01T05:16:05;19.90;;;6.28;;
59074;SDS011;44860;53.020;6.738;2023-06-01T05:18:34;13.00;;;5.63;;
59074;SDS011;44860;53.020;6.738;2023-06-01T05:21:02;12.68;;;5.57;;
59074;SDS011;44860;53.020;6.738;2023-06-01T05:23:28;12.52;;;5.75;;
59074;SDS011;44860;53.020;6.738;2023-06-01T05:25:54;11.90;;;5.78;;
59074;SDS011;44860;53.020;6.738;2023-06-01T05:28:37;14.75;;;5.60;;
59074;SDS011;44860;53.020;6.738;2023-06-01T05:31:03;14.52;;;5.80;;
59074;SDS011;44860;53.020;6.738;2023-06-01T05:33:28;12.52;;;5.30;;
59074;SDS011;44860;53.020;6.738;2023-06-01T05:35:54;15.43;;;5.95;;
59074;SDS011;44860;53.020;6.738;2023-06-01T05:38:21;10.50;;;5.60;;
59074;SDS011;44860;53.020;6.738;2023-06-01T05:40:46;11.55;;;5.25;;
59074;SDS011;44860;53.020;6.738;2023-06-01T05:43:12;14.10;;;5.30;;
59074;SDS011;44860;53.020;6.738;2023-06-01T05:45:37;12.60;;;4.65;;
59074;SDS011;44860;53.020;6.738;2023-06-01T05:48:03;13.38;;;4.93;;
59074;SDS011;44860;53.020;6.738;2023-06-01T05:50:29;14.50;;;5.55;;
59074;SDS011;44860;53.020;6.738;2023-06-01T05:52:55;12.20;;;4.70;;
59074;SDS011;44860;53.020;6.738;2023-06-01T05:55:20;12.65;;;5.05;;
59074;SDS011;44860;53.020;6.738;2023-06-01T05:57:46;9.45;;;4.55;;
59074;SDS011;44860;53.020;6.738;2023-06-01T06:00:12;9.98;;;4.88;;
59074;SDS011;44860;53.020;6.738;2023-06-01T06:02:39;9.63;;;4.85;;
59074;SDS011;44860;53.020;6.738;2023-06-01T06:05:07;12.18;;;5.07;;
59074;SDS011;44860;53.020;6.738;2023-06-01T06:07:33;11.38;;;4.78;;
59074;SDS011;44860;53.020;6.738;2023-06-01T06:09:59;10.40;;;4.05;;
59074;SDS011;44860;53.020;6.738;2023-06-01T06:12:25;10.60;;;4.32;;
59074;SDS011;44860;53.020;6.738;2023-06-01T06:14:50;9.07;;;3.60;;
59074;SDS011;44860;53.020;6.738;2023-06-01T06:17:16;8.45;;;3.80;;
59074;SDS011;44860;53.020;6.738;2023-06-01T06:19:42;7.18;;;3.40;;
59074;SDS011;44860;53.020;6.738;2023-06-01T06:22:09;7.22;;;3.35;;
59074;SDS011;44860;53.020;6.738;2023-06-01T06:24:35;7.03;;;3.20;;
59074;SDS011;44860;53.020;6.738;2023-06-01T06:27:00;8.40;;;3.67;;
59074;SDS011;44860;53.020;6.738;2023-06-01T06:29:27;8.13;;;3.63;;
59074;SDS011;44860;53.020;6.738;2023-06-01T06:31:52;9.32;;;3.65;;
59074;SDS011;44860;53.020;6.738;2023-06-01T06:34:18;7.45;;;3.30;;
59074;SDS011;44860;53.020;6.738;2023-06-01T06:36:44;8.75;;;3.40;;
59074;SDS011;44860;53.020;6.738;2023-06-01T06:39:09;7.93;;;3.33;;
59074;SDS011;44860;53.020;6.738;2023-06-01T06:41:35;6.72;;;4.18;;
59074;SDS011;44860;53.020;6.738;2023-06-01T06:44:01;7.80;;;3.88;;
59074;SDS011;44860;53.020;6.738;2023-06-01T06:46:27;5.95;;;3.53;;
59074;SDS011;44860;53.020;6.738;2023-06-01T06:48:52;7.40;;;3.35;;
59074;SDS011;44860;53.020;6.738;2023-06-01T06:51:18;7.82;;;3.42;;
59074;SDS011;44860;53.020;6.738;2023-06-01T06:53:44;6.43;;;3.30;;
59074;SDS011;44860;53.020;6.738;2023-06-01T06:56:09;7.22;;;3.58;;
59074;SDS011;44860;53.020;6.738;2023-06-01T06:58:35;8.50;;;3.88;;
59074;SDS011;44860;53.020;6.738;2023-06-01T07:01:01;8.60;;;3.85;;
59074;SDS011;44860;53.020;6.738;2023-06-01T07:03:30;7.93;;;3.10;;
59074;SDS011;44860;53.020;6.738;2023-06-01T07:05:56;6.85;;;3.00;;
59074;SDS011;44860;53.020;6.738;2023-06-01T07:08:22;5.45;;;2.63;;
59074;SDS011;44860;53.020;6.738;2023-06-01T07:10:48;5.32;;;2.42;;
59074;SDS011;44860;53.020;6.738;2023-06-01T07:13:13;4.90;;;2.50;;
59074;SDS011;44860;53.020;6.738;2023-06-01T07:15:39;4.60;;;2.35;;
59074;SDS011;44860;53.020;6.738;2023-06-01T07:18:05;7.30;;;3.22;;
59074;SDS011;44860;53.020;6.738;2023-06-01T07:20:31;4.75;;;2.60;;
59074;SDS011;44860;53.020;6.738;2023-06-01T07:22:57;4.40;;;2.80;;
59074;SDS011;44860;53.020;6.738;2023-06-01T07:25:23;6.32;;;3.38;;
59074;SDS011;44860;53.020;6.738;2023-06-01T07:27:49;8.73;;;4.28;;
59074;SDS011;44860;53.020;6.738;2023-06-01T07:30:15;6.60;;;3.75;;
59074;SDS011;44860;53.020;6.738;2023-06-01T07:32:41;7.13;;;3.80;;
59074;SDS011;44860;53.020;6.738;2023-06-01T07:35:07;8.13;;;3.78;;
59074;SDS011;44860;53.020;6.738;2023-06-01T07:37:33;8.63;;;3.85;;
59074;SDS011;44860;53.020;6.738;2023-06-01T07:39:59;5.60;;;2.72;;
59074;SDS011;44860;53.020;6.738;2023-06-01T07:42:25;4.72;;;2.70;;
59074;SDS011;44860;53.020;6.738;2023-06-01T07:44:50;4.15;;;2.35;;
59074;SDS011;44860;53.020;6.738;2023-06-01T07:47:16;6.47;;;2.38;;
59074;SDS011;44860;53.020;6.738;2023-06-01T07:49:42;4.32;;;2.30;;
59074;SDS011;44860;53.020;6.738;2023-06-01T07:52:08;3.97;;;2.20;;
59074;SDS011;44860;53.020;6.738;2023-06-01T07:54:35;3.10;;;2.28;;
59074;SDS011;44860;53.020;6.738;2023-06-01T07:57:02;6.00;;;2.63;;
59074;SDS011;44860;53.020;6.738;2023-06-01T07:59:29;5.07;;;2.38;;
59074;SDS011;44860;53.020;6.738;2023-06-01T08:01:55;4.63;;;2.50;;
59074;SDS011;44860;53.020;6.738;2023-06-01T08:04:21;4.28;;;2.30;;
59074;SDS011;44860;53.020;6.738;2023-06-01T08:06:49;3.55;;;2.40;;
59074;SDS011;44860;53.020;6.738;2023-06-01T08:09:16;4.78;;;2.50;;
59074;SDS011;44860;53.020;6.738;2023-06-01T08:11:42;5.80;;;2.80;;
59074;SDS011;44860;53.020;6.738;2023-06-01T08:14:08;4.75;;;2.70;;
59074;SDS011;44860;53.020;6.738;2023-06-01T08:16:34;5.00;;;2.78;;
59074;SDS011;44860;53.020;6.738;2023-06-01T08:19:00;4.22;;;2.78;;
59074;SDS011;44860;53.020;6.738;2023-06-01T08:21:26;5.35;;;3.20;;
59074;SDS011;44860;53.020;6.738;2023-06-01T08:23:54;4.50;;;3.03;;
59074;SDS011;44860;53.020;6.738;2023-06-01T08:26:21;6.15;;;2.97;;
59074;SDS011;44860;53.020;6.738;2023-06-01T08:28:47;5.82;;;2.90;;
59074;SDS011;44860;53.020;6.738;2023-06-01T08:31:20;5.32;;;2.97;;
59074;SDS011;44860;53.020;6.738;2023-06-01T08:33:47;5.47;;;3.00;;
59074;SDS011;44860;53.020;6.738;2023-06-01T08:36:13;4.88;;;2.72;;
59074;SDS011;44860;53.020;6.738;2023-06-01T08:38:39;5.63;;;2.60;;
59074;SDS011;44860;53.020;6.738;2023-06-01T08:41:50;6.93;;;3.08;;
59074;SDS011;44860;53.020;6.738;2023-06-01T08:44:22;4.78;;;2.72;;
59074;SDS011;44860;53.020;6.738;2023-06-01T08:46:51;4.40;;;2.80;;
59074;SDS011;44860;53.020;6.738;2023-06-01T08:49:19;6.95;;;2.65;;
59074;SDS011;44860;53.020;6.738;2023-06-01T08:51:46;5.97;;;2.85;;
59074;SDS011;44860;53.020;6.738;2023-06-01T08:54:13;5.03;;;2.90;;
59074;SDS011;44860;53.020;6.738;2023-06-01T08:56:39;3.72;;;2.55;;
59074;SDS011;44860;53.020;6.738;2023-06-01T08:59:07;8.07;;;2.80;;
59074;SDS011;44860;53.020;6.738;2023-06-01T09:01:36;5.90;;;2.60;;
59074;SDS011;44860;53.020;6.738;2023-06-01T09:04:03;7.03;;;2.63;;
59074;SDS011;44860;53.020;6.738;2023-06-01T09:06:28;4.97;;;2.40;;
59074;SDS011;44860;53.020;6.738;2023-06-01T09:08:55;3.25;;;2.13;;
59074;SDS011;44860;53.020;6.738;2023-06-01T09:11:20;4.45;;;2.00;;
59074;SDS011;44860;53.020;6.738;2023-06-01T09:13:46;4.63;;;2.22;;
59074;SDS011;44860;53.020;6.738;2023-06-01T09:16:12;6.22;;;2.40;;
59074;SDS011;44860;53.020;6.738;2023-06-01T09:18:59;8.07;;;2.83;;
59074;SDS011;44860;53.020;6.738;2023-06-01T09:21:23;6.13;;;2.50;;
59074;SDS011;44860;53.020;6.738;2023-06-01T09:23:49;6.72;;;3.15;;
59074;SDS011;44860;53.020;6.738;2023-06-01T09:26:17;7.05;;;2.97;;
59074;SDS011;44860;53.020;6.738;2023-06-01T09:31:37;7.03;;;3.40;;
59074;SDS011;44860;53.020;6.738;2023-06-01T09:34:05;7.97;;;3.60;;
59074;SDS011;44860;53.020;6.738;2023-06-01T09:36:32;9.13;;;3.58;;
59074;SDS011;44860;53.020;6.738;2023-06-01T09:41:57;8.32;;;4.40;;
59074;SDS011;44860;53.020;6.738;2023-06-01T09:44:30;9.77;;;4.47;;
59074;SDS011;44860;53.020;6.738;2023-06-01T09:47:01;10.48;;;4.15;;
59074;SDS011;44860;53.020;6.738;2023-06-01T09:49:31;14.70;;;4.38;;
59074;SDS011;44860;53.020;6.738;2023-06-01T09:54:34;13.52;;;4.85;;
59074;SDS011;44860;53.020;6.738;2023-06-01T09:57:05;11.55;;;4.32;;
59074;SDS011;44860;53.020;6.738;2023-06-01T09:59:38;14.10;;;5.00;;
59074;SDS011;44860;53.020;6.738;2023-06-01T10:02:06;14.02;;;4.43;;
59074;SDS011;44860;53.020;6.738;2023-06-01T10:04:36;13.63;;;4.68;;
59074;SDS011;44860;53.020;6.738;2023-06-01T10:07:04;15.85;;;5.05;;
59074;SDS011;44860;53.020;6.738;2023-06-01T10:09:31;13.13;;;4.82;;
59074;SDS011;44860;53.020;6.738;2023-06-01T10:11:58;13.93;;;4.03;;
59074;SDS011;44860;53.020;6.738;2023-06-01T10:14:25;13.52;;;4.05;;
59074;SDS011;44860;53.020;6.738;2023-06-01T10:16:51;12.70;;;3.72;;
59074;SDS011;44860;53.020;6.738;2023-06-01T10:19:18;10.25;;;3.60;;
59074;SDS011;44860;53.020;6.738;2023-06-01T10:21:45;10.00;;;3.40;;
59074;SDS011;44860;53.020;6.738;2023-06-01T10:24:16;9.15;;;4.07;;
59074;SDS011;44860;53.020;6.738;2023-06-01T10:29:08;8.43;;;2.95;;
59074;SDS011;44860;53.020;6.738;2023-06-01T10:34:06;12.55;;;3.65;;
59074;SDS011;44860;53.020;6.738;2023-06-01T10:37:18;9.00;;;3.10;;
59074;SDS011;44860;53.020;6.738;2023-06-01T10:41:48;10.32;;;3.60;;
59074;SDS011;44860;53.020;6.738;2023-06-01T10:44:44;13.63;;;4.03;;
59074;SDS011;44860;53.020;6.738;2023-06-01T10:47:07;11.73;;;4.30;;
59074;SDS011;44860;53.020;6.738;2023-06-01T10:52:29;12.90;;;4.25;;
59074;SDS011;44860;53.020;6.738;2023-06-01T10:57:42;16.98;;;4.03;;
59074;SDS011;44860;53.020;6.738;2023-06-01T11:03:04;9.00;;;3.55;;
59074;SDS011;44860;53.020;6.738;2023-06-01T11:05:34;12.05;;;3.75;;
59074;SDS011;44860;53.020;6.738;2023-06-01T11:13:28;11.55;;;3.75;;
59074;SDS011;44860;53.020;6.738;2023-06-01T11:21:10;13.40;;;4.25;;
59074;SDS011;44860;53.020;6.738;2023-06-01T11:23:38;10.70;;;3.97;;
59074;SDS011;44860;53.020;6.738;2023-06-01T11:26:05;10.13;;;3.92;;
59074;SDS011;44860;53.020;6.738;2023-06-01T11:28:32;11.35;;;4.07;;
59074;SDS011;44860;53.020;6.738;2023-06-01T11:30:59;12.10;;;4.10;;
59074;SDS011;44860;53.020;6.738;2023-06-01T11:33:30;11.68;;;3.83;;
59074;SDS011;44860;53.020;6.738;2023-06-01T11:36:01;11.88;;;3.92;;
59074;SDS011;44860;53.020;6.738;2023-06-01T11:38:38;11.45;;;4.13;;
59074;SDS011;44860;53.020;6.738;2023-06-01T11:41:06;8.52;;;4.00;;
59074;SDS011;44860;53.020;6.738;2023-06-01T11:43:33;12.43;;;3.88;;
59074;SDS011;44860;53.020;6.738;2023-06-01T11:46:00;9.05;;;3.90;;
59074;SDS011;44860;53.020;6.738;2023-06-01T11:48:26;10.00;;;3.80;;
59074;SDS011;44860;53.020;6.738;2023-06-01T11:50:51;12.50;;;3.58;;
59074;SDS011;44860;53.020;6.738;2023-06-01T11:53:17;11.52;;;4.03;;
59074;SDS011;44860;53.020;6.738;2023-06-01T11:55:50;9.70;;;4.00;;
59074;SDS011;44860;53.020;6.738;2023-06-01T12:00:49;12.93;;;4.00;;
59074;SDS011;44860;53.020;6.738;2023-06-01T12:03:14;10.70;;;3.63;;
59074;SDS011;44860;53.020;6.738;2023-06-01T12:05:41;10.80;;;3.97;;
59074;SDS011;44860;53.020;6.738;2023-06-01T12:08:24;9.68;;;3.60;;
59074;SDS011;44860;53.020;6.738;2023-06-01T12:10:50;12.45;;;3.35;;
59074;SDS011;44860;53.020;6.738;2023-06-01T12:13:18;8.68;;;3.60;;
59074;SDS011;44860;53.020;6.738;2023-06-01T12:15:45;9.38;;;3.38;;
59074;SDS011;44860;53.020;6.738;2023-06-01T12:18:11;11.35;;;3.38;;
59074;SDS011;44860;53.020;6.738;2023-06-01T12:20:41;7.15;;;3.30;;
59074;SDS011;44860;53.020;6.738;2023-06-01T12:25:56;8.77;;;3.30;;
59074;SDS011;44860;53.020;6.738;2023-06-01T12:28:24;11.25;;;3.33;;
59074;SDS011;44860;53.020;6.738;2023-06-01T12:31:07;8.30;;;3.40;;
59074;SDS011;44860;53.020;6.738;2023-06-01T12:33:39;9.57;;;3.60;;
59074;SDS011;44860;53.020;6.738;2023-06-01T12:36:06;11.65;;;3.80;;
59074;SDS011;44860;53.020;6.738;2023-06-01T12:41:31;8.00;;;3.55;;
59074;SDS011;44860;53.020;6.738;2023-06-01T12:43:57;12.63;;;4.28;;
59074;SDS011;44860;53.020;6.738;2023-06-01T12:46:24;11.45;;;3.90;;
59074;SDS011;44860;53.020;6.738;2023-06-01T12:48:54;9.90;;;4.00;;
59074;SDS011;44860;53.020;6.738;2023-06-01T12:51:36;16.33;;;4.40;;
59074;SDS011;44860;53.020;6.738;2023-06-01T12:54:02;12.90;;;4.30;;
59074;SDS011;44860;53.020;6.738;2023-06-01T12:56:28;15.05;;;4.20;;
59074;SDS011;44860;53.020;6.738;2023-06-01T12:58:54;12.45;;;4.35;;
59074;SDS011;44860;53.020;6.738;2023-06-01T13:01:19;10.32;;;3.85;;
59074;SDS011;44860;53.020;6.738;2023-06-01T13:03:45;7.90;;;3.60;;
59074;SDS011;44860;53.020;6.738;2023-06-01T13:06:11;9.20;;;3.95;;
59074;SDS011;44860;53.020;6.738;2023-06-01T13:08:37;8.40;;;3.80;;
59074;SDS011;44860;53.020;6.738;2023-06-01T13:11:03;8.10;;;3.45;;
59074;SDS011;44860;53.020;6.738;2023-06-01T13:13:29;13.10;;;4.07;;
59074;SDS011;44860;53.020;6.738;2023-06-01T13:15:54;9.90;;;4.30;;
59074;SDS011;44860;53.020;6.738;2023-06-01T13:18:20;12.35;;;4.47;;
59074;SDS011;44860;53.020;6.738;2023-06-01T13:20:46;10.57;;;4.40;;
59074;SDS011;44860;53.020;6.738;2023-06-01T13:23:12;10.10;;;4.88;;
59074;SDS011;44860;53.020;6.738;2023-06-01T13:25:38;14.07;;;4.80;;
59074;SDS011;44860;53.020;6.738;2023-06-01T13:28:05;11.10;;;4.53;;
59074;SDS011;44860;53.020;6.738;2023-06-01T13:30:32;9.20;;;4.25;;
59074;SDS011;44860;53.020;6.738;2023-06-01T13:32:58;11.40;;;4.47;;
59074;SDS011;44860;53.020;6.738;2023-06-01T13:35:24;10.27;;;4.40;;
59074;SDS011;44860;53.020;6.738;2023-06-01T13:37:51;12.25;;;4.22;;
59074;SDS011;44860;53.020;6.738;2023-06-01T13:40:17;9.55;;;4.28;;
59074;SDS011;44860;53.020;6.738;2023-06-01T13:42:44;13.40;;;4.45;;
59074;SDS011;44860;53.020;6.738;2023-06-01T13:45:10;12.30;;;4.15;;
59074;SDS011;44860;53.020;6.738;2023-06-01T13:47:36;9.38;;;4.18;;
59074;SDS011;44860;53.020;6.738;2023-06-01T13:50:02;11.75;;;4.35;;
59074;SDS011;44860;53.020;6.738;2023-06-01T13:52:29;11.50;;;4.25;;
59074;SDS011;44860;53.020;6.738;2023-06-01T13:54:55;12.02;;;4.35;;
59074;SDS011;44860;53.020;6.738;2023-06-01T13:57:21;13.32;;;4.30;;
59074;SDS011;44860;53.020;6.738;2023-06-01T13:59:47;14.00;;;4.55;;
59074;SDS011;44860;53.020;6.738;2023-06-01T14:02:13;14.07;;;5.35;;
59074;SDS011;44860;53.020;6.738;2023-06-01T14:04:38;12.63;;;4.40;;
59074;SDS011;44860;53.020;6.738;2023-06-01T14:07:04;14.68;;;4.80;;
59074;SDS011;44860;53.020;6.738;2023-06-01T14:09:30;11.73;;;4.65;;
59074;SDS011;44860;53.020;6.738;2023-06-01T14:11:56;14.55;;;4.95;;
59074;SDS011;44860;53.020;6.738;2023-06-01T14:14:22;13.52;;;4.30;;
59074;SDS011;44860;53.020;6.738;2023-06-01T14:16:47;10.43;;;4.43;;
59074;SDS011;44860;53.020;6.738;2023-06-01T14:19:13;12.85;;;3.92;;
59074;SDS011;44860;53.020;6.738;2023-06-01T14:21:39;10.02;;;3.60;;
59074;SDS011;44860;53.020;6.738;2023-06-01T14:24:04;9.93;;;3.58;;
59074;SDS011;44860;53.020;6.738;2023-06-01T14:26:30;9.38;;;4.05;;
59074;SDS011;44860;53.020;6.738;2023-06-01T14:28:56;9.10;;;4.00;;
59074;SDS011;44860;53.020;6.738;2023-06-01T14:31:21;7.95;;;3.13;;
59074;SDS011;44860;53.020;6.738;2023-06-01T14:33:47;9.40;;;3.50;;
59074;SDS011;44860;53.020;6.738;2023-06-01T14:36:13;7.82;;;2.90;;
59074;SDS011;44860;53.020;6.738;2023-06-01T14:38:39;5.60;;;2.58;;
59074;SDS011;44860;53.020;6.738;2023-06-01T14:41:05;9.65;;;3.00;;
59074;SDS011;44860;53.020;6.738;2023-06-01T14:43:31;8.90;;;2.80;;
59074;SDS011;44860;53.020;6.738;2023-06-01T14:45:58;8.10;;;2.90;;
59074;SDS011;44860;53.020;6.738;2023-06-01T14:48:23;6.38;;;2.60;;
59074;SDS011;44860;53.020;6.738;2023-06-01T14:50:49;7.35;;;2.20;;
59074;SDS011;44860;53.020;6.738;2023-06-01T14:53:15;6.72;;;2.30;;
59074;SDS011;44860;53.020;6.738;2023-06-01T14:55:41;7.63;;;2.80;;
59074;SDS011;44860;53.020;6.738;2023-06-01T14:58:07;6.28;;;2.80;;
59074;SDS011;44860;53.020;6.738;2023-06-01T15:00:34;11.90;;;3.17;;
59074;SDS011;44860;53.020;6.738;2023-06-01T15:03:01;8.00;;;2.33;;
59074;SDS011;44860;53.020;6.738;2023-06-01T15:05:27;9.25;;;2.60;;
59074;SDS011;44860;53.020;6.738;2023-06-01T15:07:52;5.90;;;2.60;;
59074;SDS011;44860;53.020;6.738;2023-06-01T15:10:18;7.43;;;2.17;;
59074;SDS011;44860;53.020;6.738;2023-06-01T15:12:44;6.38;;;2.90;;
59074;SDS011;44860;53.020;6.738;2023-06-01T15:15:09;7.90;;;2.25;;
59074;SDS011;44860;53.020;6.738;2023-06-01T15:17:35;6.70;;;2.25;;
59074;SDS011;44860;53.020;6.738;2023-06-01T15:20:01;9.02;;;2.67;;
59074;SDS011;44860;53.020;6.738;2023-06-01T15:22:26;8.25;;;2.42;;
59074;SDS011;44860;53.020;6.738;2023-06-01T15:24:52;7.18;;;2.30;;
59074;SDS011;44860;53.020;6.738;2023-06-01T15:27:18;6.75;;;2.35;;
59074;SDS011;44860;53.020;6.738;2023-06-01T15:29:44;6.22;;;2.28;;
59074;SDS011;44860;53.020;6.738;2023-06-01T15:32:10;6.47;;;2.42;;